Time;durP1;ratioP1;P1;durP2;ratioP2;P2;SDS_P1;SDS_P2;PMS_P1;PMS_P2;Temp;Humidity;BMP_temperature;BMP_pressure;BME280_temperature;BME280_humidity;BME280_pressure;Samples;Min_cycle;Max_cycle;Signal;HPM_P1;HPM_P2
2022/11/03 00:00:57;;;;;;;1.95;1.73;;;9.60;55.00;;;8.45;56.78;101794.00;12192917;19;20014;-85
2022/11/03 00:06:03;;;;;;;2.47;1.73;;;9.60;55.30;;;8.13;56.81;101746.34;12192838;19;20034;-85
2022/11/03 00:09:41;;;;;;;2.35;1.67;;;9.60;55.00;;;8.48;56.59;101822.53;12191405;19;20463;-85
2022/11/03 00:13:43;;;;;;;1.73;1.55;;;9.50;54.90;;;8.40;56.61;101812.38;12190463;19;20840;-85
2022/11/03 00:17:46;;;;;;;2.50;1.48;;;9.50;55.00;;;8.38;56.58;101814.97;12188450;19;20042;-84
2022/11/03 00:21:48;;;;;;;2.55;1.75;;;9.40;54.90;;;8.21;56.75;101804.19;12189485;19;20932;-85
2022/11/03 00:25:50;;;;;;;2.58;1.50;;;9.40;54.90;;;8.17;56.49;101800.81;12189681;19;20014;-85
2022/11/03 00:29:51;;;;;;;1.85;1.60;;;9.30;54.90;;;8.24;56.92;101830.13;12191961;19;20023;-84
2022/11/03 00:33:54;;;;;;;3.30;1.88;;;9.20;55.30;;;8.17;56.62;101815.56;12192149;19;20307;-85
2022/11/03 00:37:56;;;;;;;2.70;1.67;;;9.20;54.90;;;8.06;56.65;101807.22;12194586;19;20093;-85
2022/11/03 00:41:57;;;;;;;2.78;1.70;;;9.20;54.90;;;8.06;56.82;101815.03;12199926;19;20041;-85
2022/11/03 00:46:00;;;;;;;1.83;1.73;;;9.10;54.90;;;8.03;56.98;101817.72;12196386;19;20014;-84
2022/11/03 00:50:01;;;;;;;1.75;1.65;;;9.10;54.90;;;7.95;56.73;101808.34;12201094;19;20019;-84
2022/11/03 00:54:06;;;;;;;2.13;1.92;;;9.10;55.10;;;7.92;56.83;101808.44;12201080;19;20060;-85
2022/11/03 00:58:07;;;;;;;2.17;1.70;;;8.90;55.00;;;7.89;56.97;101795.53;12196894;19;20022;-85
2022/11/03 01:02:09;;;;;;;1.50;1.40;;;9.00;55.10;;;7.93;56.85;101807.53;12201101;19;20331;-84
2022/11/03 01:10:36;;;;;;;3.45;1.70;;;9.00;55.00;;;7.80;56.87;101776.69;12199279;19;20502;-85
2022/11/03 01:14:41;;;;;;;2.75;1.33;;;8.90;54.90;;;7.82;57.02;101788.78;12202079;19;20018;-85
2022/11/03 01:18:43;;;;;;;2.40;1.63;;;8.90;55.00;;;7.66;56.93;101756.28;12201501;19;20485;-85
2022/11/03 01:22:44;;;;;;;2.55;1.63;;;8.90;55.10;;;7.78;57.05;101776.75;12201133;19;20021;-85
2022/11/03 01:26:46;;;;;;;2.83;1.88;;;8.90;55.10;;;7.68;57.12;101760.53;12200809;19;20030;-85
2022/11/03 01:30:48;;;;;;;1.60;1.48;;;8.90;55.20;;;7.72;56.99;101771.69;12202889;19;20039;-84
2022/11/03 01:34:49;;;;;;;2.90;1.67;;;8.80;55.20;;;7.81;57.00;101776.66;12204150;19;20923;-84
2022/11/03 01:38:53;;;;;;;2.05;1.85;;;8.80;55.20;;;7.76;57.06;101778.53;12204729;19;20024;-84
2022/11/03 01:42:54;;;;;;;4.03;1.92;;;8.80;55.00;;;7.60;56.88;101757.28;12205063;19;20019;-85
2022/11/03 01:47:07;;;;;;;3.92;1.80;;;8.80;54.90;;;7.32;56.95;101724.22;12197996;19;20021;-84
2022/11/03 01:51:12;;;;;;;2.80;1.70;;;8.80;54.90;;;7.53;57.00;101753.13;12198224;19;20125;-85
2022/11/03 01:55:20;;;;;;;2.70;1.65;;;8.70;54.90;;;7.57;56.89;101766.94;12197969;19;20018;-84
2022/11/03 01:59:23;;;;;;;1.92;1.83;;;8.80;54.90;;;7.54;57.29;101763.50;12180973;19;20035;-84
2022/11/03 02:03:30;;;;;;;1.83;1.45;;;8.70;54.90;;;7.44;57.10;101755.97;12191945;19;20019;-85
2022/11/03 02:07:56;;;;;;;2.95;1.73;;;8.70;55.00;;;7.48;57.11;101768.88;12195385;19;20010;-84
2022/11/03 02:12:05;;;;;;;;;;;8.70;55.20;;;7.36;57.04;101758.78;12189181;19;20039;-84
2022/11/03 02:16:06;;;;;;;2.65;1.77;;;8.70;55.20;;;7.43;57.25;101765.53;12187483;19;20288;-84
2022/11/03 02:20:18;;;;;;;3.72;1.92;;;8.70;55.20;;;7.43;57.38;101765.53;12186327;19;20019;-84
2022/11/03 02:24:48;;;;;;;2.15;1.85;;;8.70;55.40;;;7.40;57.05;101757.81;12188889;19;20034;-84
2022/11/03 02:28:49;;;;;;;2.72;1.75;;;8.60;55.30;;;7.37;57.24;101749.22;12188526;19;20019;-84
2022/11/03 02:32:57;;;;;;;2.75;2.30;;;8.60;55.20;;;7.40;57.20;101754.34;12186718;19;20498;-85
2022/11/03 02:37:10;;;;;;;2.05;1.90;;;8.60;55.10;;;7.30;57.33;101749.38;12178194;19;20018;-85
2022/11/03 02:41:13;;;;;;;1.80;1.60;;;8.60;55.20;;;7.37;57.38;101750.09;12188241;19;20007;-84
2022/11/03 02:45:20;;;;;;;2.78;2.22;;;8.50;55.30;;;7.32;57.49;101732.03;12192215;19;20046;-84
2022/11/03 02:49:21;;;;;;;1.70;1.60;;;8.50;55.20;;;7.32;57.05;101718.19;12197121;19;20323;-84
2022/11/03 02:53:26;;;;;;;1.70;1.60;;;8.60;55.10;;;7.25;57.28;101716.63;12192941;19;20060;-85
2022/11/03 02:57:33;;;;;;;2.72;1.50;;;8.50;55.10;;;7.16;57.26;101712.53;12184647;19;20968;-85
2022/11/03 03:01:49;;;;;;;2.08;1.42;;;8.40;55.20;;;7.14;57.36;101705.66;12193164;19;20021;-84
2022/11/03 03:05:57;;;;;;;1.63;1.38;;;8.30;55.20;;;6.84;57.35;101664.81;12194326;19;20667;-84
2022/11/03 03:10:08;;;;;;;1.60;1.50;;;8.30;55.30;;;7.03;57.32;101692.94;12192644;19;21068;-84
2022/11/03 03:14:16;;;;;;;3.95;2.25;;;8.30;55.40;;;7.02;57.46;101693.81;12191215;19;20018;-84
2022/11/03 03:19:00;;;;;;;1.70;1.60;;;8.20;55.50;;;6.98;57.45;101692.19;12188877;19;20411;-84
2022/11/03 03:23:15;;;;;;;1.73;1.40;;;8.20;55.60;;;7.04;57.29;101705.00;12192709;19;20050;-84
2022/11/03 03:27:19;;;;;;;1.40;1.30;;;8.20;55.50;;;6.98;57.57;101706.03;12187337;19;20388;-84
2022/11/03 03:31:26;;;;;;;3.00;1.80;;;8.20;55.50;;;6.97;57.44;101700.88;12188476;19;20014;-84
2022/11/03 03:35:31;;;;;;;2.70;1.88;;;8.10;55.50;;;6.93;57.42;101681.06;12189740;19;20813;-84
2022/11/03 03:39:36;;;;;;;2.75;1.80;;;8.20;55.60;;;6.97;57.53;101699.13;12189724;19;20043;-84
2022/11/03 03:43:40;;;;;;;3.90;1.55;;;8.20;55.60;;;6.90;57.62;101688.94;12192410;19;20440;-84
2022/11/03 03:47:43;;;;;;;2.03;1.63;;;8.20;55.60;;;6.91;57.49;101690.63;12190688;19;20889;-84
2022/11/03 03:51:46;;;;;;;4.07;1.58;;;8.20;55.70;;;6.90;57.77;101687.19;12188449;19;20011;-84
2022/11/03 03:55:50;;;;;;;1.65;1.30;;;8.10;55.70;;;6.91;57.46;101688.88;12186064;19;20022;-84
2022/11/03 03:59:52;;;;;;;3.28;1.35;;;8.10;55.70;;;6.88;57.64;101686.34;12188413;19;20019;-84
2022/11/03 04:03:53;;;;;;;3.92;1.63;;;8.10;55.70;;;6.81;57.53;101670.09;12187091;19;20011;-84
2022/11/03 04:07:55;;;;;;;2.90;1.50;;;8.10;55.70;;;6.90;57.71;101686.34;12184428;19;20018;-84
2022/11/03 04:25:01;;;;;;;2.15;1.50;;;8.00;55.70;;;6.81;57.61;101674.44;12190358;19;20022;-84
2022/11/03 04:29:08;;;;;;;1.55;1.45;;;8.00;55.80;;;6.61;57.73;101659.31;12192711;19;20011;-84
2022/11/03 04:33:15;;;;;;;1.92;1.05;;;8.00;55.80;;;6.57;57.78;101637.78;12197108;19;20019;-84
2022/11/03 04:37:17;;;;;;;2.00;1.30;;;8.00;55.90;;;6.78;57.58;101669.31;12197626;19;20035;-84
2022/11/03 04:41:31;;;;;;;3.10;1.50;;;7.90;55.80;;;6.78;57.74;101682.31;12197353;19;20606;-83
2022/11/03 04:45:33;;;;;;;1.42;1.33;;;8.00;55.80;;;6.64;57.65;101648.88;12197871;19;20824;-84
2022/11/03 04:49:35;;;;;;;1.50;1.40;;;8.00;55.80;;;6.70;57.66;101661.72;12193071;19;20399;-85
2022/11/03 04:53:36;;;;;;;1.95;1.30;;;8.00;55.80;;;6.69;57.81;101656.56;12191718;19;20038;-84
2022/11/03 04:57:39;;;;;;;2.42;1.75;;;8.00;55.80;;;6.58;58.02;101642.09;12194271;19;20025;-84
2022/11/03 05:01:44;;;;;;;1.48;1.38;;;7.90;55.80;;;6.55;57.82;101629.19;12193466;19;20369;-84
2022/11/03 05:05:45;;;;;;;1.55;1.42;;;7.90;55.70;;;6.63;57.90;101645.41;12193681;19;20282;-84
2022/11/03 05:09:47;;;;;;;2.85;1.40;;;7.90;55.80;;;6.60;57.95;101627.34;12190465;19;20066;-83
2022/11/03 05:13:50;;;;;;;1.42;1.27;;;7.70;55.70;;;6.57;57.72;101632.59;12190392;19;20019;-84
2022/11/03 05:17:52;;;;;;;3.15;1.70;;;7.90;55.70;;;6.47;57.99;101614.69;12181873;19;20462;-82
2022/11/03 05:21:57;;;;;;;1.80;1.30;;;7.90;55.60;;;6.45;57.90;101616.47;12182253;19;20377;-84
2022/11/03 05:25:58;;;;;;;1.57;1.47;;;7.80;55.60;;;6.43;57.96;101613.94;12190494;19;20014;-84
2022/11/03 05:30:00;;;;;;;7.28;1.35;;;7.80;55.60;;;6.45;57.96;101611.28;12183472;19;20015;-84
2022/11/03 05:34:15;;;;;;;2.58;1.33;;;7.80;55.70;;;6.45;57.85;101625.09;12188415;19;20101;-84
2022/11/03 05:38:20;;;;;;;1.83;1.23;;;7.80;55.80;;;6.39;57.74;101599.31;12179398;19;20021;-84
2022/11/03 05:42:24;;;;;;;3.33;1.50;;;7.80;55.80;;;6.46;57.99;101610.41;12182201;19;20019;-84
2022/11/03 05:46:30;;;;;;;1.40;1.25;;;7.70;55.70;;;6.38;57.90;101595.00;12172833;19;20384;-84
2022/11/03 05:50:34;;;;;;;1.30;1.20;;;7.70;55.80;;;6.35;57.94;101590.75;12174446;19;20022;-84
2022/11/03 05:54:36;;;;;;;3.30;1.30;;;7.70;55.70;;;6.33;57.95;101586.50;12180588;19;20042;-84
2022/11/03 05:58:41;;;;;;;2.78;1.15;;;7.90;55.80;;;6.28;57.85;101583.16;12198255;19;20038;-85
2022/11/03 06:02:44;;;;;;;3.30;1.60;;;7.60;55.70;;;6.29;57.80;101574.47;12199377;19;20022;-84
2022/11/03 06:06:53;;;;;;;3.22;1.10;;;7.40;55.70;;;6.26;57.89;101584.91;12198970;19;21420;-85
2022/11/03 06:10:57;;;;;;;3.35;1.40;;;7.60;55.80;;;6.25;57.91;101584.06;12198145;19;20042;-84
2022/11/03 06:14:58;;;;;;;1.40;1.15;;;7.60;56.00;;;6.19;58.02;101576.44;12200271;19;20739;-84
2022/11/03 06:19:09;;;;;;;1.38;1.23;;;7.60;56.00;;;6.28;58.24;101593.53;12199884;19;20014;-84
2022/11/03 06:23:16;;;;;;;1.33;1.23;;;7.60;56.00;;;6.27;58.28;101591.81;12192698;19;20842;-85
2022/11/03 06:27:22;;;;;;;1.42;1.20;;;7.60;56.00;;;6.31;58.18;101596.88;12178698;19;20046;-86
2022/11/03 06:31:27;;;;;;;2.33;1.15;;;7.60;56.00;;;6.29;58.06;101593.50;12177253;19;20577;-86
2022/11/03 06:35:29;;;;;;;3.65;1.35;;;7.60;56.10;;;6.32;58.26;101584.75;12178793;19;20310;-84
2022/11/03 06:39:32;;;;;;;1.30;1.20;;;7.50;56.10;;;6.37;58.18;101591.56;12151929;19;20320;-84
2022/11/03 06:43:41;;;;;;;3.83;1.20;;;7.70;56.10;;;6.38;58.20;101593.28;12178333;19;20051;-84
2022/11/03 06:47:42;;;;;;;3.15;1.08;;;7.70;56.20;;;6.35;58.28;101595.94;12173724;19;20788;-85
2022/11/03 06:51:44;;;;;;;2.75;1.10;;;7.60;56.10;;;6.33;58.03;101589.09;12171157;19;20485;-84
2022/11/03 06:55:47;;;;;;;3.53;1.40;;;7.90;56.40;;;6.35;58.02;101589.91;12154511;19;20018;-84
2022/11/03 06:59:51;;;;;;;2.75;1.27;;;7.60;56.30;;;6.28;58.31;101581.41;12157445;19;20021;-84
2022/11/03 07:04:00;;;;;;;2.47;1.73;;;7.60;56.20;;;6.04;58.13;101543.94;12150883;19;20018;-85
2022/11/03 07:08:14;;;;;;;2.45;1.40;;;7.60;56.30;;;6.26;58.43;101587.50;12152445;19;20058;-84
2022/11/03 07:12:17;;;;;;;3.55;1.20;;;7.50;56.20;;;6.28;58.35;101583.16;12154100;19;20113;-84
2022/11/03 07:16:28;;;;;;;2.78;1.38;;;7.60;56.30;;;6.25;58.34;101578.03;12149902;19;20479;-83
2022/11/03 07:20:30;;;;;;;1.85;1.10;;;7.50;56.30;;;6.15;58.33;101562.66;12155542;19;20030;-84
2022/11/03 07:24:38;;;;;;;2.40;1.15;;;7.50;56.30;;;6.10;58.29;101555.88;12152965;19;20014;-84
2022/11/03 07:28:40;;;;;;;1.80;1.40;;;7.40;56.40;;;6.15;58.45;101548.84;12149307;19;20305;-84
2022/11/03 07:32:42;;;;;;;2.30;1.58;;;7.50;56.50;;;6.16;58.43;101543.66;12147367;19;20014;-84
2022/11/03 07:36:44;;;;;;;3.15;1.23;;;7.50;56.60;;;6.11;58.53;101532.53;12145938;19;20611;-84
2022/11/03 07:40:46;;;;;;;1.42;1.33;;;7.40;56.70;;;5.97;58.41;101493.13;12151291;19;20010;-84
2022/11/03 07:44:50;;;;;;;6.75;2.47;;;7.60;56.90;;;6.30;58.78;101545.91;12144440;19;20035;-84
2022/11/03 07:48:57;;;;;;;3.35;2.30;;;7.60;57.10;;;6.41;58.62;101554.28;12151147;19;20048;-85
2022/11/03 07:52:59;;;;;;;4.88;2.55;;;7.70;57.30;;;6.38;58.85;101538.78;12159073;19;20604;-84
2022/11/03 07:57:26;;;;;;;2.15;2.03;;;7.80;57.40;;;6.39;58.75;101524.91;12146428;19;20018;-84
2022/11/03 08:01:33;;;;;;;5.70;2.53;;;7.90;57.60;;;6.60;58.84;101536.50;12148234;19;20820;-84
2022/11/03 08:05:34;;;;;;;2.42;2.20;;;7.90;57.70;;;6.67;58.85;101528.56;12151607;19;20495;-84
2022/11/03 08:09:36;;;;;;;3.25;2.67;;;8.00;58.00;;;6.87;58.88;101544.47;12149664;19;20019;-84
2022/11/03 08:13:38;;;;;;;3.10;2.00;;;8.20;58.40;;;6.94;59.14;101525.25;12148465;19;20019;-84
2022/11/03 08:17:39;;;;;;;3.72;1.88;;;8.10;58.40;;;7.12;59.11;101528.22;12144645;19;20303;-84
2022/11/03 08:21:41;;;;;;;3.40;1.40;;;8.40;59.00;;;7.24;59.31;101520.09;12150306;19;20018;-84
2022/11/03 08:25:42;;;;;;;2.28;1.48;;;8.50;60.00;;;7.38;59.35;101511.91;12153302;19;20037;-82
2022/11/03 08:29:44;;;;;;;2.85;1.77;;;8.70;59.60;;;7.41;59.44;101497.06;12152686;19;20053;-85
2022/11/03 08:33:46;;;;;;;3.05;2.20;;;8.80;59.60;;;7.70;59.52;101516.13;12142131;19;20428;-86
2022/11/03 08:37:47;;;;;;;2.17;1.80;;;8.90;59.80;;;7.81;59.64;101506.25;12139627;19;20579;-85
2022/11/03 08:41:49;;;;;;;2.17;1.50;;;9.20;59.80;;;7.97;59.51;101501.44;12144319;19;20303;-86
2022/11/03 08:45:52;;;;;;;1.63;1.40;;;9.40;60.50;;;7.98;59.72;101477.94;12149516;19;20035;-85
2022/11/03 08:49:54;;;;;;;5.10;1.70;;;9.40;59.90;;;8.18;59.67;101471.25;12169447;19;20444;-85
2022/11/03 08:53:55;;;;;;;2.72;1.52;;;9.60;59.80;;;8.45;59.80;101482.50;12150928;19;20010;-85
2022/11/03 08:57:57;;;;;;;4.03;1.33;;;9.80;59.90;;;8.58;59.68;101462.97;12152554;19;20509;-83
2022/11/03 09:01:58;;;;;;;2.60;1.30;;;9.90;59.60;;;8.76;59.98;101455.41;12154997;19;20022;-84
2022/11/03 09:06:00;;;;;;;2.38;1.40;;;10.10;59.60;;;8.93;59.78;101445.22;12156518;19;20021;-84
2022/11/03 09:10:02;;;;;;;2.50;1.52;;;10.30;59.70;;;9.15;60.09;101447.88;12164716;19;20890;-83
2022/11/03 09:14:04;;;;;;;2.65;1.67;;;10.40;59.70;;;9.41;60.24;101448.66;12169146;19;20018;-84
2022/11/03 09:18:05;;;;;;;1.85;1.40;;;10.70;59.80;;;9.53;60.03;101427.31;12165604;19;21082;-85
2022/11/03 09:22:07;;;;;;;3.20;1.60;;;10.90;59.50;;;9.58;60.19;101394.06;12173902;19;20055;-84
2022/11/03 09:26:08;;;;;;;6.97;1.58;;;11.20;59.30;;;10.05;60.26;101430.44;12162667;19;20186;-83
2022/11/03 09:30:11;;;;;;;1.75;1.30;;;11.40;59.70;;;10.23;60.21;101426.19;12161623;19;20011;-84
2022/11/03 09:34:13;;;;;;;1.45;1.08;;;11.70;59.20;;;10.43;60.35;101417.53;12156968;19;22103;-84
2022/11/03 09:38:15;;;;;;;4.43;1.77;;;11.90;59.10;;;10.71;60.27;101418.94;12156857;19;20021;-84
2022/11/03 09:42:18;;;;;;;2.10;1.48;;;12.10;58.90;;;10.89;60.24;101402.44;12159464;19;20014;-84
2022/11/03 09:46:19;;;;;;;4.15;1.65;;;12.30;58.70;;;10.98;60.24;101380.25;12152918;19;20594;-84
2022/11/03 09:50:21;;;;;;;1.92;1.20;;;12.50;58.50;;;11.28;60.05;101380.56;12154670;19;20394;-84
2022/11/03 09:54:23;;;;;;;3.08;1.27;;;12.70;58.30;;;11.54;60.32;101397.63;12155171;19;20018;-84
2022/11/03 09:58:25;;;;;;;3.90;1.40;;;13.00;58.10;;;11.68;60.15;101381.25;12154128;19;20910;-85
2022/11/03 10:02:30;;;;;;;4.70;1.30;;;13.20;58.10;;;11.89;60.10;101372.38;12156018;19;20898;-84
2022/11/03 10:06:31;;;;;;;2.45;1.02;;;13.30;58.00;;;12.09;60.05;101367.91;12153667;19;20036;-84
2022/11/03 10:10:34;;;;;;;5.38;1.30;;;13.60;57.50;;;12.31;60.19;101370.25;12155077;19;20514;-84
2022/11/03 10:14:35;;;;;;;2.78;1.20;;;13.80;57.50;;;12.42;60.15;101354.81;12156632;19;20022;-85
2022/11/03 10:18:37;;;;;;;2.97;1.40;;;13.90;57.40;;;12.59;59.93;101344.31;12159335;19;20316;-84
2022/11/03 10:22:41;;;;;;;1.48;1.30;;;14.10;57.30;;;12.78;60.03;101348.56;12160095;19;20333;-85
2022/11/03 10:26:48;;;;;;;2.35;1.30;;;14.30;56.80;;;12.92;59.84;101332.91;12159762;19;20109;-85
2022/11/03 10:30:55;;;;;;;2.40;1.10;;;14.40;56.80;;;13.09;59.85;101342.44;12158566;19;20526;-85
2022/11/03 10:35:22;;;;;;;1.95;1.10;;;14.60;56.40;;;13.21;59.64;101330.44;12153711;19;20042;-85
2022/11/03 10:39:29;;;;;;;4.53;1.00;;;14.70;55.90;;;13.31;59.57;101315.03;12148862;19;20019;-83
2022/11/03 10:43:31;;;;;;;2.28;1.27;;;14.80;55.60;;;13.41;59.46;101300.47;12154269;19;20285;-86
2022/11/03 10:47:33;;;;;;;2.08;1.33;;;14.90;55.50;;;13.45;59.34;101286.25;12148916;19;20018;-85
2022/11/03 10:51:36;;;;;;;2.60;1.42;;;15.00;55.60;;;13.57;59.21;101282.06;12151242;19;20014;-86
2022/11/03 10:55:39;;;;;;;4.95;1.50;;;15.10;55.10;;;13.69;59.00;101273.44;12156424;19;20030;-85
2022/11/03 10:59:43;;;;;;;3.95;1.40;;;15.10;55.10;;;13.56;58.87;101244.47;12155411;19;20603;-84
2022/11/03 11:03:45;;;;;;;4.15;1.70;;;15.20;55.10;;;13.87;58.91;101282.84;12152711;19;20379;-85
2022/11/03 11:07:50;;;;;;;3.83;1.20;;;15.20;55.10;;;13.87;58.67;101263.63;12141644;19;20466;-85
2022/11/03 11:12:17;;;;;;;3.58;1.23;;;15.30;55.20;;;13.83;58.87;101249.03;12156867;19;20295;-85
2022/11/03 11:16:48;;;;;;;2.20;1.45;;;15.30;55.30;;;13.90;58.57;101255.56;12155690;19;20026;-85
2022/11/03 11:20:50;;;;;;;3.05;1.00;;;15.40;54.70;;;14.02;58.55;101249.59;12158843;19;20078;-86
2022/11/03 11:24:55;;;;;;;1.35;1.25;;;15.40;55.10;;;14.06;58.49;101240.56;12157007;19;20014;-85
2022/11/03 11:29:15;;;;;;;;;;;15.40;54.70;;;14.02;58.47;101228.56;12156118;19;20864;-86
2022/11/03 11:33:24;;;;;;;3.35;1.52;;;15.50;55.50;;;14.02;58.36;101214.59;12151607;19;20287;-86
2022/11/03 11:37:28;;;;;;;2.60;1.27;;;15.50;55.00;;;14.17;58.40;101224.97;12157036;19;20015;-85
2022/11/03 11:42:18;;;;;;;3.33;1.35;;;15.50;55.10;;;14.16;58.41;101214.59;12152191;19;20021;-85
2022/11/03 11:46:32;;;;;;;2.95;1.10;;;15.50;55.00;;;14.24;58.40;101206.22;12154862;19;20062;-85
2022/11/03 11:50:34;;;;;;;2.80;1.23;;;15.60;54.80;;;14.21;58.28;101190.66;12159628;19;20038;-85
2022/11/03 11:54:36;;;;;;;3.78;1.58;;;15.60;54.80;;;14.29;58.32;101180.50;12159234;19;20022;-87
2022/11/03 11:58:42;;;;;;;2.95;1.67;;;15.60;54.90;;;14.34;58.20;101186.31;12152570;19;20478;-86
2022/11/03 12:02:46;;;;;;;3.42;1.35;;;15.60;54.80;;;14.29;58.08;101172.63;12140712;19;20735;-85
2022/11/03 12:06:49;;;;;;;4.43;1.50;;;15.60;54.80;;;14.38;58.08;101164.16;12149638;19;20014;-86
2022/11/03 12:10:54;;;;;;;2.40;1.30;;;15.70;55.00;;;14.31;57.91;101144.47;12155433;19;20022;-85
2022/11/03 12:14:55;;;;;;;;;;;15.70;54.70;;;14.42;57.96;101156.91;12149237;19;20019;-85
2022/11/03 12:19:37;;;;;;;1.50;1.30;;;15.70;55.00;;;14.42;57.97;101146.41;12155262;19;19922;-88
2022/11/03 12:23:45;;;;;;;2.67;1.23;;;15.70;54.90;;;14.41;57.98;101129.78;12151264;19;20282;-85
2022/11/03 12:27:47;;;;;;;2.72;1.23;;;15.80;54.70;;;14.37;58.01;101113.41;12143581;19;20023;-86
2022/11/03 12:31:49;;;;;;;2.85;1.30;;;15.80;54.70;;;14.53;57.77;101123.78;12151856;19;20028;-85
2022/11/03 12:35:50;;;;;;;2.47;1.30;;;15.80;54.70;;;14.59;57.82;101117.28;12156897;19;20038;-86
2022/11/03 12:39:52;;;;;;;1.25;0.98;;;15.80;54.80;;;14.63;57.77;101128.44;12155023;19;20927;-85
2022/11/03 12:43:54;;;;;;;2.45;1.30;;;15.80;54.70;;;14.66;58.00;101121.16;12151911;19;20391;-85
2022/11/03 12:47:56;;;;;;;6.05;1.30;;;15.90;54.90;;;14.70;57.82;101120.03;12151636;19;20007;-85
2022/11/03 12:52:04;;;;;;;1.75;1.30;;;15.90;54.90;;;14.73;57.63;101119.84;12146780;19;20568;-85
2022/11/03 12:56:07;;;;;;;2.22;1.13;;;15.90;54.90;;;14.75;57.65;101114.47;12156955;19;20475;-85
2022/11/03 13:00:09;;;;;;;2.17;1.10;;;15.90;54.80;;;14.75;57.59;101096.09;12157244;19;20020;-85
2022/11/03 13:04:11;;;;;;;1.27;1.13;;;15.90;54.80;;;14.74;57.55;101097.00;12160855;19;20022;-85
2022/11/03 13:08:13;;;;;;;4.93;1.30;;;16.00;54.90;;;14.86;57.54;101098.00;12156102;19;20006;-87
2022/11/03 13:12:30;;;;;;;2.78;1.30;;;16.00;54.70;;;14.83;57.60;101078.84;12163394;19;20047;-86
2022/11/03 13:16:32;;;;;;;2.17;1.10;;;16.00;54.90;;;14.88;57.31;101078.53;12161600;19;20347;-85
2022/11/03 13:20:34;;;;;;;2.40;1.10;;;16.00;54.80;;;14.91;57.30;101078.31;12158173;19;21119;-85
2022/11/03 13:24:36;;;;;;;2.67;0.95;;;16.10;54.90;;;14.88;57.53;101069.78;12167926;19;20023;-85
2022/11/03 13:28:37;;;;;;;2.53;1.40;;;16.10;54.60;;;14.91;57.30;101052.03;12162693;19;20015;-87
2022/11/03 13:32:39;;;;;;;2.67;1.17;;;16.10;54.40;;;14.87;57.22;101031.28;12155960;19;20019;-86
2022/11/03 13:36:41;;;;;;;1.65;1.10;;;16.10;54.40;;;14.95;57.22;101037.72;12161537;19;20303;-86
2022/11/03 13:40:42;;;;;;;1.63;0.93;;;16.10;54.40;;;14.95;57.16;101027.19;12157479;19;20015;-87
2022/11/03 13:44:44;;;;;;;2.70;1.15;;;16.20;54.60;;;14.96;57.29;101012.25;12157251;19;20637;-86
2022/11/03 13:48:45;;;;;;;2.65;1.20;;;16.10;54.70;;;14.98;57.19;101008.56;12161357;19;20863;-88
2022/11/03 13:52:47;;;;;;;2.22;1.05;;;16.20;54.60;;;14.97;57.15;101013.94;12154622;19;20602;-86
2022/11/03 13:56:48;;;;;;;2.30;1.20;;;16.20;54.60;;;15.07;57.27;101007.09;12154313;19;20018;-86
2022/11/03 14:00:50;;;;;;;1.45;1.30;;;16.20;54.70;;;15.05;57.10;100982.69;12161731;19;20018;-86
2022/11/03 14:04:51;;;;;;;1.25;1.10;;;16.10;54.70;;;14.99;57.22;100968.19;12154475;19;21014;-88
2022/11/03 14:08:53;;;;;;;2.50;1.17;;;16.20;54.60;;;15.09;57.01;100972.78;12158235;19;20259;-88
2022/11/03 14:12:54;;;;;;;2.97;1.73;;;16.10;54.30;;;14.82;57.04;100924.66;12158698;19;20018;-88
2022/11/03 14:16:56;;;;;;;3.80;2.50;;;16.20;54.80;;;14.97;57.05;100949.03;12160325;19;20021;-87
2022/11/03 14:20:57;;;;;;;2.80;2.38;;;16.10;54.50;;;15.07;57.00;100965.03;12167145;19;20481;-87
2022/11/03 14:25:00;;;;;;;2.50;1.95;;;16.20;54.60;;;15.07;57.07;100966.78;12165857;19;20035;-88
2022/11/03 14:29:01;;;;;;;2.72;1.50;;;16.20;54.60;;;15.10;56.88;100971.88;12166121;19;20010;-87
2022/11/03 14:33:03;;;;;;;3.58;1.75;;;16.20;54.50;;;15.13;56.86;100958.50;12162380;19;20033;-87
2022/11/03 14:37:05;;;;;;;2.33;1.73;;;16.20;54.70;;;14.85;56.82;100913.06;12163707;19;20015;-87
2022/11/03 14:45:28;;;;;;;3.70;1.23;;;16.20;54.50;;;15.07;56.84;100932.59;12165653;19;21012;-87
2022/11/03 14:49:31;;;;;;;2.78;1.40;;;16.20;54.60;;;14.97;56.86;100903.50;12165936;19;20042;-88
2022/11/03 14:53:32;;;;;;;2.47;1.58;;;16.20;54.60;;;15.08;56.68;100913.25;12162908;19;20022;-88
2022/11/03 14:57:34;;;;;;;2.55;1.55;;;16.10;54.60;;;14.86;56.61;100882.38;12141599;19;20651;-88
2022/11/03 15:01:37;;;;;;;4.20;1.75;;;16.10;54.70;;;14.99;56.75;100898.97;12143037;19;20362;-88
2022/11/03 15:05:46;;;;;;;2.72;1.20;;;16.00;54.70;;;14.94;56.82;100882.69;12165884;19;20349;-87
2022/11/03 15:09:48;;;;;;;6.97;1.27;;;16.00;54.80;;;14.85;56.84;100871.00;12166820;19;20021;-88
2022/11/03 15:13:49;;;;;;;4.28;1.33;;;16.00;54.80;;;14.82;56.63;100866.81;12165835;19;20022;-88
2022/11/03 15:17:51;;;;;;;4.80;1.38;;;15.90;54.80;;;14.75;56.62;100868.19;12165466;19;20895;-88
2022/11/03 15:21:52;;;;;;;2.88;1.40;;;15.80;54.90;;;14.75;56.69;100859.47;12171740;19;20022;-87
2022/11/03 15:25:55;;;;;;;1.70;1.40;;;15.80;54.90;;;14.47;56.55;100816.69;12167553;19;20619;-87
2022/11/03 15:29:56;;;;;;;5.03;1.35;;;15.70;54.80;;;14.63;56.71;100840.13;12164676;19;20469;-87
2022/11/03 15:33:58;;;;;;;2.63;1.40;;;15.70;54.90;;;14.55;56.39;100831.94;12167352;19;20122;-87
2022/11/03 15:38:02;;;;;;;2.30;1.02;;;15.60;54.80;;;14.47;56.83;100829.81;12167544;19;20042;-86
2022/11/03 15:42:04;;;;;;;3.28;1.20;;;15.50;54.80;;;14.11;56.60;100772.81;12162543;19;20019;-87
2022/11/03 15:46:05;;;;;;;3.17;1.30;;;15.30;54.80;;;14.39;56.57;100834.78;12170405;19;20014;-87
2022/11/03 15:50:08;;;;;;;3.22;1.90;;;15.40;54.90;;;14.29;56.60;100825.88;12167806;19;20023;-86
2022/11/03 15:54:10;;;;;;;2.75;2.10;;;15.20;54.90;;;14.17;56.63;100809.16;12169092;19;20129;-87
2022/11/03 15:58:11;;;;;;;2.53;2.00;;;15.50;55.00;;;14.19;56.56;100811.69;12170272;19;20014;-88
2022/11/03 16:02:13;;;;;;;1.83;1.30;;;15.20;55.00;;;13.87;56.54;100763.06;12161983;19;20592;-87
2022/11/03 16:06:15;;;;;;;3.67;1.33;;;15.10;55.00;;;14.01;56.71;100785.72;12163460;19;20475;-87
2022/11/03 16:10:17;;;;;;;3.67;1.95;;;15.10;55.10;;;13.80;56.57;100748.69;12168526;19;20022;-88
2022/11/03 16:14:18;;;;;;;9.57;2.00;;;14.90;55.10;;;13.92;56.38;100771.44;12170660;19;20018;-87
2022/11/03 16:18:20;;;;;;;4.65;1.50;;;14.80;55.00;;;13.84;56.47;100758.00;12162570;19;20015;-87
2022/11/03 16:22:22;;;;;;;2.20;1.65;;;14.80;55.10;;;13.60;56.46;100723.78;12165925;19;20054;-86
2022/11/03 16:26:23;;;;;;;2.72;1.80;;;14.70;55.10;;;13.53;56.55;100717.28;12153221;19;20491;-86
2022/11/03 16:30:25;;;;;;;4.10;1.75;;;14.70;55.20;;;13.53;56.55;100722.53;12151383;19;20045;-86
2022/11/03 16:34:26;;;;;;;3.75;1.67;;;14.50;55.30;;;13.47;56.56;100720.31;12155560;19;20038;-86
2022/11/03 16:38:28;;;;;;;4.68;2.53;;;14.60;55.40;;;13.53;56.70;100727.78;12151520;19;20018;-86
2022/11/03 16:42:36;;;;;;;2.22;2.00;;;14.50;55.50;;;13.52;56.86;100727.88;12157865;19;20029;-87
2022/11/03 16:46:38;;;;;;;4.80;1.70;;;14.50;55.50;;;13.50;56.74;100739.31;12164438;19;20887;-87
2022/11/03 16:50:40;;;;;;;2.90;1.75;;;14.40;55.50;;;13.49;56.71;100735.00;12172971;19;20478;-87
2022/11/03 16:54:45;;;;;;;2.50;1.52;;;14.50;55.50;;;13.41;56.82;100705.00;12163091;19;21080;-88
2022/11/03 16:58:46;;;;;;;3.92;1.40;;;14.40;55.60;;;13.43;56.80;100700.47;12157264;19;20014;-87
2022/11/03 17:02:48;;;;;;;3.03;1.70;;;14.30;55.50;;;13.42;56.79;100704.91;12154301;19;20018;-87
2022/11/03 17:06:50;;;;;;;4.97;1.83;;;14.40;55.50;;;13.33;56.76;100679.28;12149583;19;20041;-87
2022/11/03 17:10:51;;;;;;;2.67;1.60;;;14.30;55.60;;;13.37;56.65;100691.25;12149360;19;20019;-88
2022/11/03 17:14:53;;;;;;;4.18;1.70;;;14.30;55.50;;;13.30;56.83;100678.66;12146758;19;20290;-88
2022/11/03 17:18:57;;;;;;;4.20;1.60;;;14.30;55.40;;;13.35;56.74;100682.63;12162083;19;20023;-88